sensor_id;sensor_type;location;lat;lon;timestamp;P1;durP1;ratioP1;P2;durP2;ratioP2
59653;SDS011;66556;52.008;5.432;2023-04-01T00:01:25;13.9;;;9.1;;
59653;SDS011;66556;52.008;5.432;2023-04-01T00:03:02;18.8;;;10.4;;
59653;SDS011;66556;52.008;5.432;2023-04-01T00:06:14;15.3;;;10.21;;
59653;SDS011;66556;52.008;5.432;2023-04-01T00:07:53;19.8;;;10.7;;
59653;SDS011;66556;52.008;5.432;2023-04-01T00:09:29;22.2;;;12.9;;
59653;SDS011;66556;52.008;5.432;2023-04-01T00:11:05;18.5;;;11.6;;
59653;SDS011;66556;52.008;5.432;2023-04-01T00:14:18;20.9;;;12.6;;
59653;SDS011;66556;52.008;5.432;2023-04-01T00:15:55;21.5;;;12.4;;
59653;SDS011;66556;52.008;5.432;2023-04-01T00:17:32;21.4;;;12.0;;
59653;SDS011;66556;52.008;5.432;2023-04-01T00:20:44;18.8;;;11.7;;
59653;SDS011;66556;52.008;5.432;2023-04-01T00:22:22;22.3;;;12.3;;
59653;SDS011;66556;52.008;5.432;2023-04-01T00:23:59;20.7;;;12.9;;
59653;SDS011;66556;52.008;5.432;2023-04-01T00:27:11;31.0;;;14.5;;
59653;SDS011;66556;52.008;5.432;2023-04-01T00:28:48;25.5;;;14.8;;
59653;SDS011;66556;52.008;5.432;2023-04-01T00:30:25;32.3;;;16.4;;
59653;SDS011;66556;52.008;5.432;2023-04-01T00:32:01;21.9;;;13.2;;
59653;SDS011;66556;52.008;5.432;2023-04-01T00:35:15;31.6;;;14.0;;
59653;SDS011;66556;52.008;5.432;2023-04-01T00:36:51;29.8;;;13.6;;
59653;SDS011;66556;52.008;5.432;2023-04-01T00:38:28;26.0;;;13.0;;
59653;SDS011;66556;52.008;5.432;2023-04-01T00:42:01;26.4;;;10.3;;
59653;SDS011;66556;52.008;5.432;2023-04-01T00:43:39;33.21;;;13.5;;
59653;SDS011;66556;52.008;5.432;2023-04-01T00:45:25;31.0;;;13.5;;
59653;SDS011;66556;52.008;5.432;2023-04-01T00:47:05;25.3;;;13.0;;
59653;SDS011;66556;52.008;5.432;2023-04-01T00:50:21;28.9;;;13.6;;
59653;SDS011;66556;52.008;5.432;2023-04-01T00:52:01;32.71;;;15.0;;
59653;SDS011;66556;52.008;5.432;2023-04-01T00:53:40;31.5;;;13.7;;
59653;SDS011;66556;52.008;5.432;2023-04-01T00:55:21;36.31;;;15.5;;
59653;SDS011;66556;52.008;5.432;2023-04-01T00:58:40;27.3;;;13.5;;
59653;SDS011;66556;52.008;5.432;2023-04-01T01:00:20;32.1;;;13.8;;
59653;SDS011;66556;52.008;5.432;2023-04-01T01:01:56;29.3;;;13.0;;
59653;SDS011;66556;52.008;5.432;2023-04-01T01:03:32;28.7;;;12.9;;
59653;SDS011;66556;52.008;5.432;2023-04-01T01:06:49;32.71;;;14.4;;
59653;SDS011;66556;52.008;5.432;2023-04-01T01:08:39;35.71;;;14.3;;
59653;SDS011;66556;52.008;5.432;2023-04-01T01:10:39;27.9;;;12.7;;
59653;SDS011;66556;52.008;5.432;2023-04-01T01:12:17;34.4;;;14.1;;
59653;SDS011;66556;52.008;5.432;2023-04-01T01:13:57;29.3;;;14.0;;
59653;SDS011;66556;52.008;5.432;2023-04-01T01:17:26;42.9;;;15.6;;
59653;SDS011;66556;52.008;5.432;2023-04-01T01:19:19;29.0;;;14.1;;
59653;SDS011;66556;52.008;5.432;2023-04-01T01:21:52;34.31;;;15.6;;
59653;SDS011;66556;52.008;5.432;2023-04-01T01:23:47;33.0;;;13.6;;
59653;SDS011;66556;52.008;5.432;2023-04-01T01:26:23;32.0;;;14.1;;
59653;SDS011;66556;52.008;5.432;2023-04-01T01:28:37;34.1;;;15.0;;
59653;SDS011;66556;52.008;5.432;2023-04-01T01:32:21;34.1;;;14.8;;
59653;SDS011;66556;52.008;5.432;2023-04-01T01:35:16;39.4;;;19.0;;
59653;SDS011;66556;52.008;5.432;2023-04-01T01:36:59;38.1;;;15.9;;
59653;SDS011;66556;52.008;5.432;2023-04-01T01:40:19;37.9;;;16.5;;
59653;SDS011;66556;52.008;5.432;2023-04-01T01:41:56;45.5;;;19.7;;
59653;SDS011;66556;52.008;5.432;2023-04-01T01:43:36;45.5;;;19.7;;
59653;SDS011;66556;52.008;5.432;2023-04-01T01:45:16;36.31;;;17.61;;
59653;SDS011;66556;52.008;5.432;2023-04-01T01:48:34;48.3;;;19.8;;
59653;SDS011;66556;52.008;5.432;2023-04-01T01:50:13;48.0;;;19.2;;
59653;SDS011;66556;52.008;5.432;2023-04-01T01:51:51;42.4;;;17.11;;
59653;SDS011;66556;52.008;5.432;2023-04-01T01:55:22;45.6;;;17.8;;
59653;SDS011;66556;52.008;5.432;2023-04-01T01:57:03;52.4;;;20.41;;
59653;SDS011;66556;52.008;5.432;2023-04-01T01:58:43;41.9;;;17.0;;
59653;SDS011;66556;52.008;5.432;2023-04-01T02:00:22;48.4;;;18.0;;
59653;SDS011;66556;52.008;5.432;2023-04-01T02:01:58;48.4;;;18.0;;
59653;SDS011;66556;52.008;5.432;2023-04-01T02:05:16;46.8;;;18.7;;
59653;SDS011;66556;52.008;5.432;2023-04-01T02:06:56;43.1;;;17.61;;
59653;SDS011;66556;52.008;5.432;2023-04-01T02:08:38;46.8;;;19.0;;
59653;SDS011;66556;52.008;5.432;2023-04-01T02:11:59;45.1;;;17.11;;
59653;SDS011;66556;52.008;5.432;2023-04-01T02:13:40;43.8;;;17.11;;
59653;SDS011;66556;52.008;5.432;2023-04-01T02:15:22;41.3;;;15.8;;
59653;SDS011;66556;52.008;5.432;2023-04-01T02:17:04;39.1;;;16.0;;
59653;SDS011;66556;52.008;5.432;2023-04-01T02:18:44;37.5;;;15.4;;
59653;SDS011;66556;52.008;5.432;2023-04-01T02:22:05;39.31;;;15.3;;
59653;SDS011;66556;52.008;5.432;2023-04-01T02:23:46;37.21;;;15.3;;
59653;SDS011;66556;52.008;5.432;2023-04-01T02:25:23;34.5;;;14.6;;
59653;SDS011;66556;52.008;5.432;2023-04-01T02:27:03;39.1;;;16.11;;
59653;SDS011;66556;52.008;5.432;2023-04-01T02:30:19;30.5;;;14.1;;
59653;SDS011;66556;52.008;5.432;2023-04-01T02:31:56;29.9;;;12.4;;
59653;SDS011;66556;52.008;5.432;2023-04-01T02:33:34;33.21;;;13.6;;
59653;SDS011;66556;52.008;5.432;2023-04-01T02:36:50;29.2;;;13.6;;
59653;SDS011;66556;52.008;5.432;2023-04-01T02:38:26;31.3;;;14.3;;
59653;SDS011;66556;52.008;5.432;2023-04-01T02:40:03;27.7;;;12.2;;
59653;SDS011;66556;52.008;5.432;2023-04-01T02:41:43;23.6;;;12.1;;
59653;SDS011;66556;52.008;5.432;2023-04-01T02:44:57;21.8;;;10.5;;
59653;SDS011;66556;52.008;5.432;2023-04-01T02:46:33;22.2;;;11.2;;
59653;SDS011;66556;52.008;5.432;2023-04-01T02:48:09;28.5;;;13.4;;
59653;SDS011;66556;52.008;5.432;2023-04-01T02:51:21;25.3;;;12.5;;
59653;SDS011;66556;52.008;5.432;2023-04-01T02:52:58;27.8;;;13.2;;
59653;SDS011;66556;52.008;5.432;2023-04-01T02:54:35;25.3;;;12.2;;
59653;SDS011;66556;52.008;5.432;2023-04-01T02:57:48;22.9;;;12.5;;
59653;SDS011;66556;52.008;5.432;2023-04-01T02:59:24;22.7;;;11.1;;
59653;SDS011;66556;52.008;5.432;2023-04-01T03:01:00;22.0;;;11.0;;
59653;SDS011;66556;52.008;5.432;2023-04-01T03:04:13;19.61;;;10.6;;
59653;SDS011;66556;52.008;5.432;2023-04-01T03:05:49;29.6;;;15.4;;
59653;SDS011;66556;52.008;5.432;2023-04-01T03:07:25;20.11;;;12.2;;
59653;SDS011;66556;52.008;5.432;2023-04-01T03:09:02;19.0;;;11.9;;
59653;SDS011;66556;52.008;5.432;2023-04-01T03:12:14;23.5;;;12.8;;
59653;SDS011;66556;52.008;5.432;2023-04-01T03:13:50;32.9;;;17.41;;
59653;SDS011;66556;52.008;5.432;2023-04-01T03:15:26;27.4;;;15.5;;
59653;SDS011;66556;52.008;5.432;2023-04-01T03:18:38;30.6;;;17.2;;
59653;SDS011;66556;52.008;5.432;2023-04-01T03:20:15;26.2;;;14.2;;
59653;SDS011;66556;52.008;5.432;2023-04-01T03:21:51;22.1;;;13.0;;
59653;SDS011;66556;52.008;5.432;2023-04-01T03:25:05;23.5;;;15.1;;
59653;SDS011;66556;52.008;5.432;2023-04-01T03:26:42;20.11;;;12.5;;
59653;SDS011;66556;52.008;5.432;2023-04-01T03:28:18;17.3;;;11.5;;
59653;SDS011;66556;52.008;5.432;2023-04-01T03:29:54;19.5;;;12.6;;
59653;SDS011;66556;52.008;5.432;2023-04-01T03:33:07;18.41;;;12.5;;
59653;SDS011;66556;52.008;5.432;2023-04-01T03:34:43;22.6;;;14.1;;
59653;SDS011;66556;52.008;5.432;2023-04-01T03:36:19;23.2;;;14.2;;
59653;SDS011;66556;52.008;5.432;2023-04-01T03:39:31;20.5;;;14.0;;
59653;SDS011;66556;52.008;5.432;2023-04-01T03:41:07;22.0;;;13.3;;
59653;SDS011;66556;52.008;5.432;2023-04-01T03:42:47;16.9;;;12.0;;
59653;SDS011;66556;52.008;5.432;2023-04-01T03:46:01;24.5;;;14.1;;
59653;SDS011;66556;52.008;5.432;2023-04-01T03:47:37;24.0;;;14.2;;
59653;SDS011;66556;52.008;5.432;2023-04-01T03:49:13;24.9;;;16.11;;
59653;SDS011;66556;52.008;5.432;2023-04-01T03:50:49;23.2;;;13.2;;
59653;SDS011;66556;52.008;5.432;2023-04-01T03:54:01;31.8;;;17.61;;
59653;SDS011;66556;52.008;5.432;2023-04-01T03:55:38;20.2;;;13.1;;
59653;SDS011;66556;52.008;5.432;2023-04-01T03:57:14;25.9;;;15.3;;
59653;SDS011;66556;52.008;5.432;2023-04-01T04:00:27;22.6;;;14.2;;
59653;SDS011;66556;52.008;5.432;2023-04-01T04:02:04;26.6;;;14.8;;
59653;SDS011;66556;52.008;5.432;2023-04-01T04:03:40;26.4;;;15.4;;
59653;SDS011;66556;52.008;5.432;2023-04-01T04:06:53;26.2;;;14.7;;
59653;SDS011;66556;52.008;5.432;2023-04-01T04:08:29;23.5;;;14.2;;
59653;SDS011;66556;52.008;5.432;2023-04-01T04:10:06;28.8;;;16.0;;
59653;SDS011;66556;52.008;5.432;2023-04-01T04:11:42;23.7;;;14.1;;
59653;SDS011;66556;52.008;5.432;2023-04-01T04:14:55;26.7;;;15.2;;
59653;SDS011;66556;52.008;5.432;2023-04-01T04:16:34;26.3;;;14.9;;
59653;SDS011;66556;52.008;5.432;2023-04-01T04:18:11;24.8;;;13.9;;
59653;SDS011;66556;52.008;5.432;2023-04-01T04:21:23;20.11;;;12.6;;
59653;SDS011;66556;52.008;5.432;2023-04-01T04:22:59;27.2;;;14.6;;
59653;SDS011;66556;52.008;5.432;2023-04-01T04:24:36;25.4;;;14.2;;
59653;SDS011;66556;52.008;5.432;2023-04-01T04:27:51;21.6;;;12.6;;
59653;SDS011;66556;52.008;5.432;2023-04-01T04:29:27;20.3;;;11.9;;
59653;SDS011;66556;52.008;5.432;2023-04-01T04:31:03;21.8;;;12.1;;
59653;SDS011;66556;52.008;5.432;2023-04-01T04:32:40;18.61;;;11.4;;
59653;SDS011;66556;52.008;5.432;2023-04-01T04:35:54;18.2;;;12.1;;
59653;SDS011;66556;52.008;5.432;2023-04-01T04:37:31;20.8;;;11.8;;
59653;SDS011;66556;52.008;5.432;2023-04-01T04:39:08;21.1;;;12.4;;
59653;SDS011;66556;52.008;5.432;2023-04-01T04:42:21;24.1;;;13.9;;
59653;SDS011;66556;52.008;5.432;2023-04-01T04:43:57;32.1;;;15.9;;
59653;SDS011;66556;52.008;5.432;2023-04-01T04:45:33;27.7;;;15.1;;
59653;SDS011;66556;52.008;5.432;2023-04-01T04:48:45;21.1;;;13.6;;
59653;SDS011;66556;52.008;5.432;2023-04-01T04:50:21;22.7;;;14.3;;
59653;SDS011;66556;52.008;5.432;2023-04-01T04:51:58;23.1;;;14.3;;
59653;SDS011;66556;52.008;5.432;2023-04-01T04:53:35;17.5;;;11.8;;
59653;SDS011;66556;52.008;5.432;2023-04-01T04:56:48;30.6;;;15.2;;
59653;SDS011;66556;52.008;5.432;2023-04-01T04:58:27;16.7;;;11.9;;
59653;SDS011;66556;52.008;5.432;2023-04-01T05:00:03;18.5;;;11.8;;
59653;SDS011;66556;52.008;5.432;2023-04-01T05:03:17;20.0;;;12.0;;
59653;SDS011;66556;52.008;5.432;2023-04-01T05:04:53;22.0;;;12.0;;
59653;SDS011;66556;52.008;5.432;2023-04-01T05:06:29;18.7;;;11.2;;
59653;SDS011;66556;52.008;5.432;2023-04-01T05:09:41;18.0;;;10.1;;
59653;SDS011;66556;52.008;5.432;2023-04-01T05:11:18;16.4;;;9.4;;
59653;SDS011;66556;52.008;5.432;2023-04-01T05:12:55;17.91;;;9.21;;
59653;SDS011;66556;52.008;5.432;2023-04-01T05:14:31;12.7;;;8.0;;
59653;SDS011;66556;52.008;5.432;2023-04-01T05:17:44;15.9;;;8.71;;
59653;SDS011;66556;52.008;5.432;2023-04-01T05:19:20;13.7;;;7.4;;
59653;SDS011;66556;52.008;5.432;2023-04-01T05:20:56;8.9;;;6.0;;
59653;SDS011;66556;52.008;5.432;2023-04-01T05:24:07;13.0;;;6.4;;
59653;SDS011;66556;52.008;5.432;2023-04-01T05:25:44;9.9;;;6.3;;
59653;SDS011;66556;52.008;5.432;2023-04-01T05:27:19;12.0;;;6.4;;
59653;SDS011;66556;52.008;5.432;2023-04-01T05:30:31;11.0;;;6.1;;
59653;SDS011;66556;52.008;5.432;2023-04-01T05:32:07;10.0;;;6.0;;
59653;SDS011;66556;52.008;5.432;2023-04-01T05:33:43;10.21;;;6.3;;
59653;SDS011;66556;52.008;5.432;2023-04-01T05:36:55;10.8;;;6.4;;
59653;SDS011;66556;52.008;5.432;2023-04-01T05:38:32;12.0;;;6.5;;
59653;SDS011;66556;52.008;5.432;2023-04-01T05:40:08;9.9;;;6.8;;
59653;SDS011;66556;52.008;5.432;2023-04-01T05:41:45;13.0;;;8.0;;
59653;SDS011;66556;52.008;5.432;2023-04-01T05:44:57;16.4;;;8.81;;
59653;SDS011;66556;52.008;5.432;2023-04-01T05:46:33;17.91;;;9.71;;
59653;SDS011;66556;52.008;5.432;2023-04-01T05:48:09;15.5;;;9.21;;
59653;SDS011;66556;52.008;5.432;2023-04-01T05:51:22;14.9;;;9.1;;
59653;SDS011;66556;52.008;5.432;2023-04-01T05:52:59;16.3;;;9.81;;
59653;SDS011;66556;52.008;5.432;2023-04-01T05:54:35;19.8;;;9.81;;
59653;SDS011;66556;52.008;5.432;2023-04-01T05:57:47;17.0;;;10.1;;
59653;SDS011;66556;52.008;5.432;2023-04-01T05:59:23;14.8;;;9.6;;
59653;SDS011;66556;52.008;5.432;2023-04-01T06:01:00;16.11;;;10.0;;
59653;SDS011;66556;52.008;5.432;2023-04-01T06:02:37;15.8;;;10.1;;
59653;SDS011;66556;52.008;5.432;2023-04-01T06:05:52;17.8;;;10.0;;
59653;SDS011;66556;52.008;5.432;2023-04-01T06:07:28;15.6;;;9.6;;
59653;SDS011;66556;52.008;5.432;2023-04-01T06:09:07;15.9;;;9.81;;
59653;SDS011;66556;52.008;5.432;2023-04-01T06:12:40;17.41;;;10.21;;
59653;SDS011;66556;52.008;5.432;2023-04-01T06:14:40;16.3;;;10.1;;
59653;SDS011;66556;52.008;5.432;2023-04-01T06:16:29;17.0;;;10.0;;
59653;SDS011;66556;52.008;5.432;2023-04-01T06:18:22;17.5;;;10.3;;
59653;SDS011;66556;52.008;5.432;2023-04-01T06:21:05;17.3;;;10.21;;
59653;SDS011;66556;52.008;5.432;2023-04-01T06:23:08;14.8;;;9.5;;
59653;SDS011;66556;52.008;5.432;2023-04-01T06:25:12;17.5;;;10.4;;
59653;SDS011;66556;52.008;5.432;2023-04-01T06:27:07;16.7;;;10.1;;
59653;SDS011;66556;52.008;5.432;2023-04-01T06:29:19;15.6;;;9.5;;
59653;SDS011;66556;52.008;5.432;2023-04-01T06:31:09;13.3;;;8.9;;
59653;SDS011;66556;52.008;5.432;2023-04-01T06:32:57;13.8;;;9.31;;
59653;SDS011;66556;52.008;5.432;2023-04-01T06:35:45;13.3;;;9.21;;
59653;SDS011;66556;52.008;5.432;2023-04-01T06:37:53;15.6;;;10.1;;
59653;SDS011;66556;52.008;5.432;2023-04-01T06:41:12;16.5;;;10.0;;
59653;SDS011;66556;52.008;5.432;2023-04-01T06:44:14;11.5;;;8.6;;
59653;SDS011;66556;52.008;5.432;2023-04-01T06:46:00;11.1;;;8.81;;
59653;SDS011;66556;52.008;5.432;2023-04-01T06:47:48;17.11;;;10.9;;
59653;SDS011;66556;52.008;5.432;2023-04-01T06:49:42;13.4;;;9.5;;
59653;SDS011;66556;52.008;5.432;2023-04-01T06:51:31;13.6;;;8.81;;
59653;SDS011;66556;52.008;5.432;2023-04-01T06:53:21;12.6;;;9.0;;
59653;SDS011;66556;52.008;5.432;2023-04-01T06:55:13;14.7;;;9.9;;
59653;SDS011;66556;52.008;5.432;2023-04-01T06:57:03;21.2;;;12.3;;
59653;SDS011;66556;52.008;5.432;2023-04-01T07:00:39;13.1;;;9.71;;
59653;SDS011;66556;52.008;5.432;2023-04-01T07:02:22;15.2;;;10.3;;
59653;SDS011;66556;52.008;5.432;2023-04-01T07:04:06;13.1;;;9.81;;
59653;SDS011;66556;52.008;5.432;2023-04-01T07:05:49;13.8;;;9.71;;
59653;SDS011;66556;52.008;5.432;2023-04-01T07:07:28;14.0;;;9.9;;
59653;SDS011;66556;52.008;5.432;2023-04-01T07:10:53;18.5;;;11.0;;
59653;SDS011;66556;52.008;5.432;2023-04-01T07:12:36;15.8;;;10.3;;
59653;SDS011;66556;52.008;5.432;2023-04-01T07:14:20;11.7;;;8.81;;
59653;SDS011;66556;52.008;5.432;2023-04-01T07:16:07;12.7;;;8.71;;
59653;SDS011;66556;52.008;5.432;2023-04-01T07:19:32;14.1;;;9.0;;
59653;SDS011;66556;52.008;5.432;2023-04-01T07:21:20;9.5;;;7.2;;
59653;SDS011;66556;52.008;5.432;2023-04-01T07:23:02;12.2;;;7.8;;
59653;SDS011;66556;52.008;5.432;2023-04-01T07:24:41;9.9;;;6.0;;
59653;SDS011;66556;52.008;5.432;2023-04-01T07:26:21;7.0;;;5.3;;
59653;SDS011;66556;52.008;5.432;2023-04-01T07:29:39;7.3;;;5.5;;
59653;SDS011;66556;52.008;5.432;2023-04-01T07:31:20;6.6;;;5.11;;
59653;SDS011;66556;52.008;5.432;2023-04-01T07:33:08;7.9;;;4.91;;
59653;SDS011;66556;52.008;5.432;2023-04-01T07:34:56;6.6;;;5.2;;
59653;SDS011;66556;52.008;5.432;2023-04-01T07:36:49;6.0;;;4.91;;
59653;SDS011;66556;52.008;5.432;2023-04-01T07:40:27;6.6;;;5.11;;
59653;SDS011;66556;52.008;5.432;2023-04-01T07:42:15;6.9;;;5.2;;
59653;SDS011;66556;52.008;5.432;2023-04-01T07:44:03;7.2;;;5.2;;
59653;SDS011;66556;52.008;5.432;2023-04-01T07:45:54;7.6;;;5.0;;
59653;SDS011;66556;52.008;5.432;2023-04-01T07:47:41;6.5;;;5.2;;
59653;SDS011;66556;52.008;5.432;2023-04-01T07:49:35;6.3;;;5.2;;
59653;SDS011;66556;52.008;5.432;2023-04-01T07:51:21;6.8;;;5.0;;
59653;SDS011;66556;52.008;5.432;2023-04-01T07:54:54;6.8;;;5.11;;
59653;SDS011;66556;52.008;5.432;2023-04-01T07:56:38;7.3;;;5.4;;
59653;SDS011;66556;52.008;5.432;2023-04-01T07:58:24;6.3;;;4.8;;
59653;SDS011;66556;52.008;5.432;2023-04-01T08:00:11;6.4;;;4.7;;
59653;SDS011;66556;52.008;5.432;2023-04-01T08:01:57;6.2;;;4.3;;
59653;SDS011;66556;52.008;5.432;2023-04-01T08:05:49;6.9;;;5.2;;
59653;SDS011;66556;52.008;5.432;2023-04-01T08:07:33;7.1;;;5.4;;
59653;SDS011;66556;52.008;5.432;2023-04-01T08:09:18;7.4;;;5.5;;
59653;SDS011;66556;52.008;5.432;2023-04-01T08:11:08;10.1;;;6.6;;
59653;SDS011;66556;52.008;5.432;2023-04-01T08:12:59;11.2;;;6.6;;
59653;SDS011;66556;52.008;5.432;2023-04-01T08:14:48;8.6;;;6.5;;
59653;SDS011;66556;52.008;5.432;2023-04-01T08:16:32;9.21;;;6.6;;
59653;SDS011;66556;52.008;5.432;2023-04-01T08:20:12;9.21;;;7.2;;
59653;SDS011;66556;52.008;5.432;2023-04-01T08:21:58;11.6;;;7.4;;
59653;SDS011;66556;52.008;5.432;2023-04-01T08:23:40;11.0;;;7.6;;
59653;SDS011;66556;52.008;5.432;2023-04-01T08:25:20;10.8;;;7.6;;
59653;SDS011;66556;52.008;5.432;2023-04-01T08:27:01;10.5;;;7.4;;
59653;SDS011;66556;52.008;5.432;2023-04-01T08:30:30;13.0;;;8.71;;
59653;SDS011;66556;52.008;5.432;2023-04-01T08:32:17;11.7;;;8.0;;
59653;SDS011;66556;52.008;5.432;2023-04-01T08:33:59;13.7;;;8.5;;
59653;SDS011;66556;52.008;5.432;2023-04-01T08:35:40;14.0;;;8.71;;
59653;SDS011;66556;52.008;5.432;2023-04-01T08:37:25;17.0;;;9.5;;
59653;SDS011;66556;52.008;5.432;2023-04-01T08:40:54;14.7;;;9.0;;
59653;SDS011;66556;52.008;5.432;2023-04-01T08:44:36;15.1;;;9.81;;
59653;SDS011;66556;52.008;5.432;2023-04-01T08:47:42;15.9;;;9.6;;
59653;SDS011;66556;52.008;5.432;2023-04-01T08:51:16;12.0;;;8.71;;
59653;SDS011;66556;52.008;5.432;2023-04-01T08:54:10;14.6;;;9.31;;
59653;SDS011;66556;52.008;5.432;2023-04-01T08:57:26;14.8;;;9.31;;
59653;SDS011;66556;52.008;5.432;2023-04-01T08:59:35;15.5;;;10.0;;
59653;SDS011;66556;52.008;5.432;2023-04-01T09:01:31;17.2;;;10.3;;
59653;SDS011;66556;52.008;5.432;2023-04-01T09:04:39;17.8;;;10.7;;
59653;SDS011;66556;52.008;5.432;2023-04-01T09:08:28;16.11;;;10.0;;
59653;SDS011;66556;52.008;5.432;2023-04-01T09:10:21;16.9;;;10.3;;
59653;SDS011;66556;52.008;5.432;2023-04-01T09:13:08;18.11;;;11.0;;
59653;SDS011;66556;52.008;5.432;2023-04-01T09:15:34;20.2;;;12.3;;
59653;SDS011;66556;52.008;5.432;2023-04-01T09:18:42;15.3;;;10.0;;
59653;SDS011;66556;52.008;5.432;2023-04-01T09:21:41;21.4;;;12.2;;
59653;SDS011;66556;52.008;5.432;2023-04-01T09:23:48;15.3;;;9.9;;
59653;SDS011;66556;52.008;5.432;2023-04-01T09:26:08;18.41;;;10.7;;
59653;SDS011;66556;52.008;5.432;2023-04-01T09:28:06;17.61;;;10.6;;
59653;SDS011;66556;52.008;5.432;2023-04-01T09:29:54;19.5;;;10.7;;
59653;SDS011;66556;52.008;5.432;2023-04-01T09:32:31;19.3;;;11.2;;
59653;SDS011;66556;52.008;5.432;2023-04-01T09:36:02;18.11;;;11.2;;
59653;SDS011;66556;52.008;5.432;2023-04-01T09:39:34;20.7;;;11.6;;
59653;SDS011;66556;52.008;5.432;2023-04-01T09:41:20;22.7;;;11.3;;
59653;SDS011;66556;52.008;5.432;2023-04-01T09:43:16;18.0;;;11.2;;
59653;SDS011;66556;52.008;5.432;2023-04-01T09:45:05;20.3;;;12.1;;
59653;SDS011;66556;52.008;5.432;2023-04-01T09:46:56;19.41;;;11.9;;
59653;SDS011;66556;52.008;5.432;2023-04-01T09:49:00;17.3;;;11.2;;
59653;SDS011;66556;52.008;5.432;2023-04-01T09:52:13;18.8;;;11.6;;
59653;SDS011;66556;52.008;5.432;2023-04-01T09:54:07;18.5;;;12.0;;
59653;SDS011;66556;52.008;5.432;2023-04-01T09:57:22;21.5;;;12.1;;
59653;SDS011;66556;52.008;5.432;2023-04-01T09:59:21;18.8;;;11.7;;
59653;SDS011;66556;52.008;5.432;2023-04-01T10:01:23;17.7;;;11.2;;
59653;SDS011;66556;52.008;5.432;2023-04-01T10:06:08;20.41;;;12.2;;
59653;SDS011;66556;52.008;5.432;2023-04-01T10:10:03;14.0;;;9.1;;
59653;SDS011;66556;52.008;5.432;2023-04-01T10:13:10;16.4;;;9.0;;
59653;SDS011;66556;52.008;5.432;2023-04-01T10:20:23;12.1;;;7.4;;
59653;SDS011;66556;52.008;5.432;2023-04-01T10:22:50;9.81;;;6.4;;
59653;SDS011;66556;52.008;5.432;2023-04-01T10:26:14;9.6;;;6.4;;
59653;SDS011;66556;52.008;5.432;2023-04-01T10:29:21;7.7;;;6.2;;
59653;SDS011;66556;52.008;5.432;2023-04-01T10:41:46;5.8;;;4.8;;
59653;SDS011;66556;52.008;5.432;2023-04-01T10:46:21;5.9;;;5.11;;
59653;SDS011;66556;52.008;5.432;2023-04-01T10:49:01;7.0;;;5.4;;
59653;SDS011;66556;52.008;5.432;2023-04-01T10:51:59;5.6;;;4.8;;
59653;SDS011;66556;52.008;5.432;2023-04-01T10:56:00;6.2;;;5.6;;
59653;SDS011;66556;52.008;5.432;2023-04-01T10:59:16;5.9;;;4.91;;
59653;SDS011;66556;52.008;5.432;2023-04-01T11:06:27;5.2;;;4.7;;
59653;SDS011;66556;52.008;5.432;2023-04-01T11:07:19;5.2;;;4.7;;
59653;SDS011;66556;52.008;5.432;2023-04-01T11:14:24;5.11;;;4.3;;
59653;SDS011;66556;52.008;5.432;2023-04-01T11:16:19;5.11;;;4.1;;
59653;SDS011;66556;52.008;5.432;2023-04-01T11:17:19;4.5;;;4.1;;
59653;SDS011;66556;52.008;5.432;2023-04-01T11:18:18;4.5;;;4.1;;
59653;SDS011;66556;52.008;5.432;2023-04-01T11:19:50;5.3;;;4.3;;
59653;SDS011;66556;52.008;5.432;2023-04-01T11:22:20;6.9;;;5.2;;
59653;SDS011;66556;52.008;5.432;2023-04-01T11:23:17;5.7;;;5.0;;
59653;SDS011;66556;52.008;5.432;2023-04-01T11:25:36;5.7;;;4.7;;
59653;SDS011;66556;52.008;5.432;2023-04-01T11:27:53;6.4;;;4.7;;
59653;SDS011;66556;52.008;5.432;2023-04-01T11:30:16;5.2;;;4.61;;
59653;SDS011;66556;52.008;5.432;2023-04-01T11:32:06;7.0;;;5.0;;
59653;SDS011;66556;52.008;5.432;2023-04-01T11:33:56;5.7;;;4.7;;
59653;SDS011;66556;52.008;5.432;2023-04-01T11:35:59;5.4;;;4.91;;
59653;SDS011;66556;52.008;5.432;2023-04-01T11:38:04;7.2;;;5.3;;
59653;SDS011;66556;52.008;5.432;2023-04-01T11:39:57;7.0;;;5.2;;
59653;SDS011;66556;52.008;5.432;2023-04-01T11:41:45;7.6;;;5.3;;
59653;SDS011;66556;52.008;5.432;2023-04-01T11:45:16;6.7;;;5.3;;
59653;SDS011;66556;52.008;5.432;2023-04-01T11:47:26;6.5;;;5.7;;
59653;SDS011;66556;52.008;5.432;2023-04-01T11:49:27;6.0;;;4.61;;
59653;SDS011;66556;52.008;5.432;2023-04-01T11:51:34;5.2;;;4.7;;
59653;SDS011;66556;52.008;5.432;2023-04-01T11:54:04;3.6;;;3.3;;
59653;SDS011;66556;52.008;5.432;2023-04-01T11:57:51;5.0;;;3.0;;
59653;SDS011;66556;52.008;5.432;2023-04-01T11:59:51;4.3;;;3.1;;
59653;SDS011;66556;52.008;5.432;2023-04-01T12:01:43;2.9;;;2.6;;
59653;SDS011;66556;52.008;5.432;2023-04-01T12:04:04;3.4;;;2.31;;
59653;SDS011;66556;52.008;5.432;2023-04-01T12:06:01;2.8;;;2.6;;
59653;SDS011;66556;52.008;5.432;2023-04-01T12:07:50;4.61;;;2.5;;
59653;SDS011;66556;52.008;5.432;2023-04-01T12:09:40;3.4;;;2.7;;
59653;SDS011;66556;52.008;5.432;2023-04-01T12:11:26;3.0;;;2.5;;
59653;SDS011;66556;52.008;5.432;2023-04-01T12:13:14;2.8;;;2.5;;
59653;SDS011;66556;52.008;5.432;2023-04-01T12:15:03;3.2;;;2.5;;
59653;SDS011;66556;52.008;5.432;2023-04-01T12:18:40;4.3;;;3.6;;
59653;SDS011;66556;52.008;5.432;2023-04-01T12:20:26;4.3;;;3.6;;
59653;SDS011;66556;52.008;5.432;2023-04-01T12:22:19;3.3;;;3.0;;
59653;SDS011;66556;52.008;5.432;2023-04-01T12:27:13;3.7;;;2.5;;
59653;SDS011;66556;52.008;5.432;2023-04-01T12:29:07;2.8;;;2.6;;
59653;SDS011;66556;52.008;5.432;2023-04-01T12:31:01;3.9;;;2.0;;
59653;SDS011;66556;52.008;5.432;2023-04-01T12:32:53;3.5;;;1.9;;
59653;SDS011;66556;52.008;5.432;2023-04-01T12:34:45;4.61;;;2.4;;
59653;SDS011;66556;52.008;5.432;2023-04-01T12:36:40;2.21;;;2.0;;
59653;SDS011;66556;52.008;5.432;2023-04-01T12:38:30;3.0;;;2.1;;
59653;SDS011;66556;52.008;5.432;2023-04-01T12:40:23;2.5;;;2.0;;
59653;SDS011;66556;52.008;5.432;2023-04-01T12:43:10;2.5;;;2.31;;
59653;SDS011;66556;52.008;5.432;2023-04-01T12:45:13;3.0;;;2.7;;
59653;SDS011;66556;52.008;5.432;2023-04-01T12:51:08;5.3;;;3.3;;
59653;SDS011;66556;52.008;5.432;2023-04-01T12:54:09;4.41;;;3.3;;
59653;SDS011;66556;52.008;5.432;2023-04-01T12:58:59;3.8;;;3.4;;
59653;SDS011;66556;52.008;5.432;2023-04-01T13:01:36;6.0;;;5.4;;
59653;SDS011;66556;52.008;5.432;2023-04-01T13:05:47;7.2;;;6.3;;
59653;SDS011;66556;52.008;5.432;2023-04-01T13:09:20;8.1;;;6.6;;
59653;SDS011;66556;52.008;5.432;2023-04-01T13:11:09;9.71;;;7.7;;
59653;SDS011;66556;52.008;5.432;2023-04-01T13:13:00;8.31;;;7.5;;
59653;SDS011;66556;52.008;5.432;2023-04-01T13:15:10;7.5;;;6.8;;
59653;SDS011;66556;52.008;5.432;2023-04-01T13:17:13;9.31;;;8.31;;
59653;SDS011;66556;52.008;5.432;2023-04-01T13:18:59;9.71;;;8.71;;
59653;SDS011;66556;52.008;5.432;2023-04-01T13:20:44;11.3;;;9.71;;
59653;SDS011;66556;52.008;5.432;2023-04-01T13:22:26;11.0;;;9.81;;
59653;SDS011;66556;52.008;5.432;2023-04-01T13:24:24;10.3;;;9.21;;
59653;SDS011;66556;52.008;5.432;2023-04-01T13:26:15;10.1;;;9.1;;
59653;SDS011;66556;52.008;5.432;2023-04-01T13:29:45;10.7;;;9.21;;
59653;SDS011;66556;52.008;5.432;2023-04-01T13:31:53;10.6;;;9.31;;
59653;SDS011;66556;52.008;5.432;2023-04-01T13:33:42;10.3;;;9.21;;
59653;SDS011;66556;52.008;5.432;2023-04-01T13:35:28;10.0;;;9.0;;
59653;SDS011;66556;52.008;5.432;2023-04-01T13:37:20;10.5;;;8.81;;
59653;SDS011;66556;52.008;5.432;2023-04-01T13:39:19;9.9;;;8.9;;
59653;SDS011;66556;52.008;5.432;2023-04-01T13:41:10;10.5;;;8.31;;
59653;SDS011;66556;52.008;5.432;2023-04-01T13:42:58;9.5;;;8.2;;
59653;SDS011;66556;52.008;5.432;2023-04-01T13:46:56;9.4;;;8.4;;
59653;SDS011;66556;52.008;5.432;2023-04-01T13:48:50;9.0;;;8.1;;
59653;SDS011;66556;52.008;5.432;2023-04-01T13:52:13;9.5;;;8.31;;
59653;SDS011;66556;52.008;5.432;2023-04-01T13:54:13;10.6;;;8.5;;
59653;SDS011;66556;52.008;5.432;2023-04-01T13:56:33;9.5;;;7.9;;
59653;SDS011;66556;52.008;5.432;2023-04-01T13:58:22;8.5;;;6.9;;